CYMU

Umiujaq Airport

Umiujaq, Quebec, Canada
METAR CYMU 191300Z 10010G17KT 15SM FEW009 FEW020 SCT052 M04/M07 A2978 RMK SF1SC1SC2 SF TR SLP094
Observed Flight Rules
Oct-19 @ 13:00 UTC (21 minutes ago) Visual Flight Rules
Wind Visibility Clouds
100° at 10 knots
 Gusting to 17 knots
15 miles
  • Few at 900' AGL
  • Few at 2,000' AGL
  • Scattered at 5,200' AGL
Temperatures Readings
Current -4°C / 25°F
Dewpoint -7°C / 19°F
Humidity 80%
Altimeter 29.78" Hg
Pressure 1009.4 hPa
Elevation 71
METAR CYMU 191300Z 10010G17KT 15SM FEW009 FEW020 SCT052 M04/M07 A2978 RMK SF1SC1SC2 SF TR SLP094
Observed Flight Rules
Oct-19 @ 13:00 UTC
(21 minutes ago)
VFR
Wind Visibility
100° at 10 knots
 Gusting to 17 knots
15 miles
Clouds
  • Few at 900' AGL
  • Few at 2,000' AGL
  • Scattered at 5,200' AGL
Temperature Dewpoint
-4°C / 25°F -7°C / 19°F
Humidity Altimeter Pressure
80% 29.78" Hg 1009.4 hPa